Time;durP1;ratioP1;P1;durP2;ratioP2;P2;SDS_P1;SDS_P2;PMS_P1;PMS_P2;Temp;Humidity;BMP_temperature;BMP_pressure;BME280_temperature;BME280_humidity;BME280_pressure;Samples;Min_cycle;Max_cycle;Signal;HPM_P1;HPM_P2
2022/10/12 05:27:36;;;;;;;4.28;2.25;;;13.90;67.60;;;;;;5776050;24;20041;-79
2022/10/12 05:30:05;;;;;;;8.13;3.42;;;13.90;67.60;;;;;;4789550;29;20092;-77
2022/10/12 05:32:30;;;;;;;7.40;2.53;;;13.90;67.60;;;;;;4790911;29;20366;-78
2022/10/12 05:34:56;;;;;;;6.32;2.10;;;13.90;67.70;;;;;;4807798;29;20058;-78
2022/10/12 05:37:22;;;;;;;4.88;2.05;;;13.90;67.70;;;;;;4792685;29;20062;-76
2022/10/12 05:39:48;;;;;;;6.75;2.10;;;13.90;67.90;;;;;;4807842;29;20057;-77
2022/10/12 05:42:15;;;;;;;9.20;2.50;;;13.90;68.10;;;;;;4791702;29;20116;-78
2022/10/12 05:44:41;;;;;;;10.60;3.20;;;14.00;68.80;;;;;;4793557;29;20441;-79
2022/10/12 05:47:06;;;;;;;8.02;2.72;;;14.00;69.30;;;;;;4791207;29;20118;-78
2022/10/12 05:49:33;;;;;;;13.50;2.72;;;14.10;71.00;;;;;;4792494;29;20069;-76
2022/10/12 05:51:59;;;;;;;11.68;3.05;;;14.20;71.40;;;;;;4807453;29;20042;-78
2022/10/12 05:54:25;;;;;;;11.77;2.58;;;14.40;70.90;;;;;;4792114;29;20055;-78
2022/10/12 05:56:50;;;;;;;10.48;2.20;;;14.70;70.70;;;;;;4788675;29;20066;-78
2022/10/12 05:59:16;;;;;;;11.93;2.65;;;15.00;70.20;;;;;;4806208;29;20047;-79
2022/10/12 06:01:42;;;;;;;8.23;2.13;;;15.30;69.90;;;;;;4807261;29;20506;-80
2022/10/12 06:04:08;;;;;;;11.80;2.53;;;15.60;69.50;;;;;;4810909;29;20048;-80
2022/10/12 06:06:34;;;;;;;9.73;2.10;;;15.80;69.30;;;;;;4799545;29;20486;-79
2022/10/12 06:08:59;;;;;;;12.73;2.60;;;16.10;68.90;;;;;;4807408;29;20371;-79
2022/10/12 06:11:28;;;;;;;12.23;2.40;;;16.30;68.60;;;;;;4790606;30;20055;-80
2022/10/12 06:13:54;;;;;;;16.48;2.25;;;16.40;68.40;;;;;;4789593;30;20051;-78
2022/10/12 06:16:20;;;;;;;13.10;2.28;;;16.50;68.50;;;;;;4775648;29;20051;-78
2022/10/12 06:18:46;;;;;;;11.77;2.35;;;16.50;68.50;;;;;;4791726;29;20051;-79
2022/10/12 06:21:12;;;;;;;18.50;2.42;;;16.60;68.70;;;;;;4776678;29;20057;-80
2022/10/12 06:23:37;;;;;;;9.70;2.60;;;16.70;68.60;;;;;;4791621;29;20138;-78
2022/10/12 06:26:03;;;;;;;11.52;2.25;;;16.70;68.30;;;;;;4806382;29;20059;-80
2022/10/12 06:28:29;;;;;;;10.93;2.47;;;16.70;68.30;;;;;;4807250;29;20059;-79
2022/10/12 06:30:56;;;;;;;16.13;2.15;;;16.70;68.40;;;;;;4808174;29;20070;-80
2022/10/12 06:33:23;;;;;;;16.33;2.90;;;16.80;68.10;;;;;;4790396;29;20072;-77
2022/10/12 06:35:49;;;;;;;15.48;3.10;;;16.80;67.90;;;;;;4807878;29;20061;-79
2022/10/12 06:38:15;;;;;;;20.85;2.25;;;16.80;68.90;;;;;;4791960;29;20058;-79
2022/10/12 06:40:41;;;;;;;11.80;2.38;;;16.90;69.00;;;;;;4807460;29;20066;-80
2022/10/12 06:43:06;;;;;;;20.23;2.55;;;17.10;68.80;;;;;;4792167;29;20101;-79
2022/10/12 06:45:32;;;;;;;12.77;2.10;;;17.20;68.30;;;;;;4808097;29;20054;-80
2022/10/12 06:47:58;;;;;;;13.68;2.28;;;17.30;67.70;;;;;;4795815;29;20057;-81
2022/10/12 06:50:25;;;;;;;14.63;2.67;;;17.10;66.10;;;;;;4791769;30;20055;-81
2022/10/12 06:52:51;;;;;;;10.93;1.83;;;17.20;66.80;;;;;;4792821;30;20545;-81
2022/10/12 06:55:17;;;;;;;18.67;2.22;;;17.30;67.40;;;;;;4762116;30;20043;-82
2022/10/12 06:57:43;;;;;;;24.60;3.10;;;17.40;67.20;;;;;;4777290;30;20054;-82
2022/10/12 07:00:12;;;;;;;19.25;2.38;;;17.50;67.10;;;;;;4762434;30;20055;-81
2022/10/12 07:02:38;;;;;;;12.73;3.00;;;17.50;67.50;;;;;;4792884;30;20051;-79
2022/10/12 07:05:06;;;;;;;12.07;2.70;;;17.50;66.70;;;;;;4776809;30;20147;-80
2022/10/12 07:07:33;;;;;;;12.98;2.65;;;17.50;66.20;;;;;;4793044;30;20428;-79
2022/10/12 07:09:59;;;;;;;17.15;2.78;;;17.50;66.00;;;;;;4793225;30;20069;-83
2022/10/12 07:12:25;;;;;;;12.45;2.30;;;17.40;66.10;;;;;;4792451;30;20503;-84
2022/10/12 07:14:53;;;;;;;10.88;2.90;;;17.40;66.30;;;;;;4778209;29;20054;-82
2022/10/12 07:17:19;;;;;;;10.93;2.55;;;17.40;66.60;;;;;;4795080;29;20430;-82
2022/10/12 07:19:45;;;;;;;17.52;3.03;;;17.30;66.80;;;;;;4794841;29;20042;-81
2022/10/12 07:22:11;;;;;;;11.50;2.22;;;17.20;66.90;;;;;;4779444;29;20054;-83
2022/10/12 07:24:36;;;;;;;14.93;2.47;;;17.20;67.10;;;;;;4795413;29;20082;-83
2022/10/12 07:27:04;;;;;;;9.88;2.53;;;17.10;67.30;;;;;;4794511;29;20473;-82
2022/10/12 07:29:31;;;;;;;15.50;2.70;;;17.00;67.40;;;;;;4794125;29;20050;-83
2022/10/12 07:31:57;;;;;;;13.65;2.50;;;17.00;67.60;;;;;;4794021;29;20093;-81
2022/10/12 07:34:24;;;;;;;13.75;2.67;;;17.00;67.50;;;;;;4779439;29;20050;-82
2022/10/12 07:36:50;;;;;;;10.35;2.55;;;16.90;67.30;;;;;;4794466;29;20133;-81
2022/10/12 07:39:16;;;;;;;13.93;2.88;;;16.90;67.20;;;;;;4778997;29;20099;-81
2022/10/12 07:41:42;;;;;;;10.45;2.80;;;16.70;67.10;;;;;;4793989;29;20407;-80
2022/10/12 07:44:08;;;;;;;11.82;2.20;;;16.70;67.00;;;;;;4793958;29;20471;-83
2022/10/12 07:46:34;;;;;;;9.77;2.65;;;16.70;67.00;;;;;;4810293;29;20099;-84
2022/10/12 07:49:00;;;;;;;12.15;2.35;;;16.60;67.00;;;;;;4768745;30;20137;-75
2022/10/12 07:51:26;;;;;;;12.18;3.38;;;16.60;67.20;;;;;;4792017;29;20051;-82
2022/10/12 07:53:52;;;;;;;13.38;3.05;;;16.60;67.30;;;;;;4792358;29;20038;-77
2022/10/12 07:56:20;;;;;;;12.43;3.33;;;16.60;67.20;;;;;;4792166;29;20093;-80
2022/10/12 07:58:51;;;;;;;16.45;3.20;;;16.50;67.20;;;;;;4791989;29;20074;-77
2022/10/12 08:01:18;;;;;;;15.25;3.97;;;16.50;67.20;;;;;;4793673;29;20364;-80
2022/10/12 08:03:44;;;;;;;16.77;3.60;;;16.50;67.30;;;;;;4792518;29;20519;-78
2022/10/12 08:06:11;;;;;;;11.88;3.45;;;16.50;67.40;;;;;;4792088;30;20185;-79
2022/10/12 08:08:38;;;;;;;7.53;3.60;;;16.50;67.30;;;;;;4775908;30;20050;-79
2022/10/12 08:11:05;;;;;;;10.05;3.17;;;16.50;66.10;;;;;;4791641;30;20047;-72
2022/10/12 08:13:35;;;;;;;9.05;3.05;;;16.50;65.40;;;;;;4791471;30;20519;-80
2022/10/12 08:16:02;;;;;;;14.98;3.25;;;16.40;65.60;;;;;;4791978;30;20059;-79
2022/10/12 08:18:28;;;;;;;8.23;2.67;;;16.40;65.90;;;;;;4791570;30;20077;-77
2022/10/12 08:20:54;;;;;;;16.88;3.63;;;16.40;66.00;;;;;;4791466;30;20047;-81
2022/10/12 08:23:20;;;;;;;9.02;3.10;;;16.40;66.20;;;;;;4775587;30;20059;-81
2022/10/12 08:25:53;;;;;;;14.40;3.08;;;16.40;66.40;;;;;;4775572;30;20043;-77
2022/10/12 11:15:57;;;;;;;17.60;2.75;;;16.50;66.00;;;;;;4808331;29;20066;-72
2022/10/12 11:18:34;;;;;;;16.42;3.33;;;16.50;66.00;;;;;;4809707;29;20069;-73
2022/10/12 11:21:35;;;;;;;12.07;2.55;;;16.50;66.40;;;;;;4811032;29;20059;-73
2022/10/12 11:24:25;;;;;;;10.77;2.20;;;16.40;66.70;;;;;;4800869;29;20094;-73
2022/10/12 11:27:00;;;;;;;18.95;3.28;;;16.40;66.90;;;;;;4791841;29;20078;-73
2022/10/12 11:29:26;;;;;;;13.90;2.15;;;16.40;67.30;;;;;;4792859;30;20090;-73
2022/10/12 11:32:06;;;;;;;16.30;2.30;;;16.40;67.50;;;;;;4792190;29;20055;-74
2022/10/12 11:34:44;;;;;;;14.13;2.63;;;16.40;67.40;;;;;;4802107;29;20058;-74
2022/10/12 11:37:17;;;;;;;17.20;2.38;;;16.30;67.60;;;;;;4810212;29;20062;-73
2022/10/12 11:39:49;;;;;;;14.50;2.83;;;16.30;67.90;;;;;;4811040;29;20127;-74
2022/10/12 11:42:26;;;;;;;15.85;2.50;;;16.30;68.20;;;;;;4810252;29;20051;-74
2022/10/12 11:44:52;;;;;;;11.10;1.80;;;16.20;68.50;;;;;;4797466;29;20051;-76
2022/10/12 11:47:38;;;;;;;10.35;2.17;;;16.20;68.70;;;;;;4806747;29;20057;-76
2022/10/12 11:50:27;;;;;;;8.20;1.90;;;16.20;68.90;;;;;;4810026;29;20055;-74
2022/10/12 11:52:55;;;;;;;10.95;2.63;;;16.20;69.10;;;;;;4809547;29;20117;-74
2022/10/12 11:55:39;;;;;;;13.18;2.05;;;16.20;69.20;;;;;;4795098;29;20121;-75
2022/10/12 11:58:16;;;;;;;13.10;2.40;;;16.20;69.40;;;;;;4792143;30;20051;-78
2022/10/12 12:01:07;;;;;;;13.50;2.35;;;16.20;69.80;;;;;;4791917;29;20047;-75
2022/10/12 12:03:42;;;;;;;9.25;2.08;;;16.20;69.80;;;;;;4780251;30;20065;-76
2022/10/12 12:06:48;;;;;;;22.92;3.08;;;16.20;69.90;;;;;;4791608;29;20355;-75
2022/10/12 12:09:34;;;;;;;18.15;3.17;;;16.30;69.90;;;;;;4781557;30;20055;-74
2022/10/12 12:12:32;;;;;;;16.20;2.95;;;16.20;70.10;;;;;;4793977;29;20374;-78
2022/10/12 12:15:00;;;;;;;23.95;3.33;;;16.30;70.10;;;;;;4805093;29;20077;-75
2022/10/12 18:17:38;;;;;;;12.27;2.33;;;16.60;66.50;;;;;;4861108;24;20466;-74
2022/10/12 18:20:04;;;;;;;5.82;1.50;;;16.60;66.80;;;;;;4807389;29;20051;-75
2022/10/12 18:22:30;;;;;;;4.60;1.75;;;16.60;67.10;;;;;;4803732;29;20102;-77
2022/10/12 18:24:56;;;;;;;7.70;2.05;;;16.60;67.30;;;;;;4789528;30;20079;-75
2022/10/12 18:27:22;;;;;;;4.50;1.38;;;16.60;67.30;;;;;;4805789;29;20055;-76
2022/10/12 18:29:47;;;;;;;6.10;1.98;;;16.60;67.40;;;;;;4807859;29;20550;-75
2022/10/12 18:32:13;;;;;;;4.22;1.70;;;16.50;67.40;;;;;;4808295;29;20067;-76
2022/10/12 18:34:42;;;;;;;6.45;1.67;;;16.50;67.60;;;;;;4807602;29;20197;-76
2022/10/12 18:37:07;;;;;;;4.47;1.58;;;16.50;67.60;;;;;;4808037;29;20373;-77
2022/10/12 18:39:33;;;;;;;7.07;1.65;;;16.50;67.60;;;;;;4808252;29;20051;-77
2022/10/12 18:41:59;;;;;;;8.43;2.50;;;16.50;67.40;;;;;;4808821;29;20051;-73
2022/10/12 18:44:24;;;;;;;6.43;2.78;;;16.50;67.00;;;;;;4806206;29;20412;-76
2022/10/12 18:46:50;;;;;;;8.05;2.80;;;16.60;66.70;;;;;;4793415;30;20047;-74
2022/10/12 18:49:16;;;;;;;8.77;2.67;;;16.60;66.60;;;;;;4804089;29;20043;-77
2022/10/12 18:51:46;;;;;;;9.77;3.25;;;16.60;66.30;;;;;;4810462;29;20055;-77
2022/10/12 18:54:12;;;;;;;6.90;2.97;;;16.60;65.80;;;;;;4794915;29;20059;-76
2022/10/12 18:56:39;;;;;;;9.85;3.53;;;16.60;65.50;;;;;;4810762;29;20482;-79
2022/10/12 18:59:06;;;;;;;8.20;3.55;;;16.60;65.10;;;;;;4811018;29;20057;-80
2022/10/12 19:01:32;;;;;;;9.93;3.92;;;16.60;64.90;;;;;;4768917;30;20062;-81
2022/10/12 19:03:59;;;;;;;7.85;2.97;;;16.60;64.70;;;;;;4792583;30;20051;-81
2022/10/12 19:06:31;;;;;;;7.65;3.53;;;16.60;64.60;;;;;;4792709;30;20093;-80
2022/10/12 19:08:58;;;;;;;15.98;4.32;;;16.60;64.60;;;;;;4761915;30;20107;-80
2022/10/12 19:11:25;;;;;;;14.35;4.45;;;16.50;64.50;;;;;;4787517;29;20114;-80
2022/10/12 19:14:01;;;;;;;9.50;4.57;;;16.60;64.50;;;;;;4778439;29;20074;-81
2022/10/12 19:16:28;;;;;;;11.98;4.65;;;16.50;64.10;;;;;;4789512;30;20470;-81
2022/10/12 19:18:56;;;;;;;12.60;4.45;;;16.50;63.90;;;;;;4797255;29;20071;-81
2022/10/12 19:21:22;;;;;;;9.60;5.15;;;16.50;63.50;;;;;;4779174;29;20055;-83
2022/10/12 19:23:47;;;;;;;10.20;5.13;;;16.40;63.30;;;;;;4761639;30;20054;-80
2022/10/12 19:26:17;;;;;;;13.30;5.40;;;16.40;63.20;;;;;;4776786;30;20055;-81
2022/10/12 19:28:43;;;;;;;12.45;5.50;;;16.40;63.20;;;;;;4791452;29;20155;-80
2022/10/12 19:31:13;;;;;;;11.93;5.47;;;16.30;63.10;;;;;;4792410;30;20078;-80
2022/10/12 19:33:39;;;;;;;14.82;6.40;;;16.20;63.00;;;;;;4778285;29;20055;-82
2022/10/12 19:36:10;;;;;;;14.90;6.93;;;16.20;63.10;;;;;;4809869;29;20386;-82
2022/10/12 19:38:37;;;;;;;12.63;6.05;;;16.20;62.80;;;;;;4810355;29;20042;-83
2022/10/12 19:41:04;;;;;;;11.65;6.30;;;16.10;62.80;;;;;;4809904;29;20058;-82
2022/10/12 19:43:32;;;;;;;13.32;7.05;;;16.00;63.20;;;;;;4810349;29;20526;-77
2022/10/12 19:46:02;;;;;;;13.23;7.13;;;15.80;63.40;;;;;;4809645;29;20122;-81
2022/10/12 19:48:28;;;;;;;14.23;6.93;;;15.80;63.60;;;;;;4763550;30;20063;-81
2022/10/12 19:50:58;;;;;;;15.57;7.10;;;15.60;63.80;;;;;;4795330;29;20129;-82
2022/10/12 19:53:24;;;;;;;13.63;7.28;;;15.60;64.00;;;;;;4779317;29;20134;-80
2022/10/12 19:55:50;;;;;;;12.75;7.05;;;15.50;64.20;;;;;;4810053;29;20151;-79
2022/10/12 19:58:15;;;;;;;12.00;6.45;;;15.40;64.50;;;;;;4794893;29;20047;-81
2022/10/12 20:00:41;;;;;;;11.95;6.57;;;15.30;64.80;;;;;;4823784;29;20093;-82
2022/10/12 20:03:07;;;;;;;12.68;7.15;;;15.30;65.00;;;;;;4774270;30;20094;-81
2022/10/12 20:05:33;;;;;;;13.02;7.10;;;15.20;65.10;;;;;;4775978;30;20083;-82
2022/10/12 20:07:59;;;;;;;14.57;7.38;;;15.20;65.20;;;;;;4776089;30;20116;-81
2022/10/12 20:10:24;;;;;;;15.57;7.68;;;15.20;65.20;;;;;;4776071;30;20485;-82
2022/10/12 20:12:50;;;;;;;15.32;8.00;;;15.10;65.90;;;;;;4790513;30;20059;-82
2022/10/12 20:15:16;;;;;;;16.77;8.18;;;15.10;65.40;;;;;;4775752;30;20051;-82
2022/10/12 20:17:41;;;;;;;15.18;8.27;;;15.10;65.40;;;;;;4791513;30;20056;-82
2022/10/12 20:20:08;;;;;;;15.18;8.05;;;15.10;65.50;;;;;;4791661;30;20047;-82
2022/10/12 20:22:42;;;;;;;13.75;7.32;;;15.10;65.70;;;;;;4775461;30;20113;-81
2022/10/12 20:25:08;;;;;;;10.80;7.82;;;15.00;65.80;;;;;;4775974;30;20118;-78
2022/10/12 20:27:35;;;;;;;17.60;8.95;;;14.90;66.10;;;;;;4775535;30;20605;-78
2022/10/12 20:30:04;;;;;;;15.38;9.00;;;14.90;66.30;;;;;;4791373;30;20051;-77
2022/10/12 20:32:32;;;;;;;15.25;8.40;;;14.90;66.30;;;;;;4791322;30;20047;-81
2022/10/12 20:34:58;;;;;;;15.98;8.63;;;14.90;66.30;;;;;;4791668;30;20383;-79
2022/10/12 20:37:23;;;;;;;17.52;8.73;;;14.90;66.40;;;;;;4791511;30;20059;-82
2022/10/12 20:39:50;;;;;;;14.90;9.32;;;14.90;66.40;;;;;;4796727;29;20050;-81
2022/10/12 20:42:16;;;;;;;18.95;9.38;;;14.80;66.50;;;;;;4808885;29;20042;-77
2022/10/12 20:44:42;;;;;;;14.90;8.23;;;14.80;66.70;;;;;;4795480;29;20062;-77
2022/10/12 20:47:08;;;;;;;14.55;8.00;;;14.80;66.90;;;;;;4792667;29;20039;-78
2022/10/12 20:49:34;;;;;;;17.27;8.02;;;14.70;66.90;;;;;;4793518;29;20463;-74
2022/10/12 20:52:00;;;;;;;13.40;8.32;;;14.70;66.90;;;;;;4809016;29;20054;-75
2022/10/12 20:54:27;;;;;;;14.43;7.75;;;14.70;66.90;;;;;;4809310;29;20138;-74
